sensor_id;sensor_type;location;lat;lon;timestamp;P1;durP1;ratioP1;P2;durP2;ratioP2
64459;SDS011;50828;53.756;21.140;2022-09-01T00:02:05;1.50;;;0.90;;
64459;SDS011;50828;53.756;21.140;2022-09-01T00:07:12;2.10;;;0.90;;
64459;SDS011;50828;53.756;21.140;2022-09-01T00:12:20;1.30;;;0.80;;
64459;SDS011;50828;53.756;21.140;2022-09-01T00:17:28;3.70;;;1.90;;
64459;SDS011;50828;53.756;21.140;2022-09-01T00:22:36;1.90;;;1.00;;
64459;SDS011;50828;53.756;21.140;2022-09-01T00:27:44;2.00;;;0.90;;
64459;SDS011;50828;53.756;21.140;2022-09-01T00:32:51;1.90;;;0.90;;
64459;SDS011;50828;53.756;21.140;2022-09-01T00:37:59;3.20;;;1.10;;
64459;SDS011;50828;53.756;21.140;2022-09-01T00:43:13;1.50;;;1.00;;
64459;SDS011;50828;53.756;21.140;2022-09-01T00:48:22;1.60;;;0.90;;
64459;SDS011;50828;53.756;21.140;2022-09-01T00:53:30;3.20;;;1.00;;
64459;SDS011;50828;53.756;21.140;2022-09-01T00:58:39;2.70;;;1.20;;
64459;SDS011;50828;53.756;21.140;2022-09-01T01:03:47;3.50;;;1.10;;
64459;SDS011;50828;53.756;21.140;2022-09-01T01:08:54;1.40;;;0.90;;
64459;SDS011;50828;53.756;21.140;2022-09-01T01:14:03;3.10;;;1.20;;
64459;SDS011;50828;53.756;21.140;2022-09-01T01:19:15;1.70;;;0.80;;
64459;SDS011;50828;53.756;21.140;2022-09-01T01:24:41;2.90;;;0.90;;
64459;SDS011;50828;53.756;21.140;2022-09-01T01:29:50;1.00;;;0.60;;
64459;SDS011;50828;53.756;21.140;2022-09-01T01:34:58;1.80;;;0.80;;
64459;SDS011;50828;53.756;21.140;2022-09-01T01:40:09;1.50;;;0.70;;
64459;SDS011;50828;53.756;21.140;2022-09-01T01:45:19;1.10;;;0.70;;
64459;SDS011;50828;53.756;21.140;2022-09-01T01:50:29;1.00;;;0.80;;
64459;SDS011;50828;53.756;21.140;2022-09-01T01:55:38;1.90;;;0.80;;
64459;SDS011;50828;53.756;21.140;2022-09-01T02:00:47;1.00;;;0.70;;
64459;SDS011;50828;53.756;21.140;2022-09-01T02:05:58;1.70;;;0.70;;
64459;SDS011;50828;53.756;21.140;2022-09-01T02:11:10;1.10;;;0.80;;
64459;SDS011;50828;53.756;21.140;2022-09-01T02:16:20;3.50;;;1.10;;
64459;SDS011;50828;53.756;21.140;2022-09-01T02:21:28;1.60;;;0.90;;
64459;SDS011;50828;53.756;21.140;2022-09-01T02:26:37;2.70;;;0.80;;
64459;SDS011;50828;53.756;21.140;2022-09-01T02:36:56;3.80;;;0.80;;
64459;SDS011;50828;53.756;21.140;2022-09-01T02:42:04;1.60;;;0.70;;
64459;SDS011;50828;53.756;21.140;2022-09-01T02:47:13;3.70;;;1.60;;
64459;SDS011;50828;53.756;21.140;2022-09-01T02:52:20;1.90;;;0.60;;
64459;SDS011;50828;53.756;21.140;2022-09-01T02:57:28;2.50;;;0.90;;
64459;SDS011;50828;53.756;21.140;2022-09-01T03:02:38;0.70;;;0.70;;
64459;SDS011;50828;53.756;21.140;2022-09-01T03:07:45;3.30;;;0.80;;
64459;SDS011;50828;53.756;21.140;2022-09-01T03:12:57;2.00;;;0.90;;
64459;SDS011;50828;53.756;21.140;2022-09-01T03:18:06;1.70;;;0.80;;
64459;SDS011;50828;53.756;21.140;2022-09-01T03:23:15;1.50;;;0.90;;
64459;SDS011;50828;53.756;21.140;2022-09-01T03:28:24;2.50;;;0.80;;
64459;SDS011;50828;53.756;21.140;2022-09-01T03:33:32;3.20;;;0.90;;
64459;SDS011;50828;53.756;21.140;2022-09-01T03:38:42;2.10;;;0.90;;
64459;SDS011;50828;53.756;21.140;2022-09-01T03:43:52;2.30;;;0.70;;
64459;SDS011;50828;53.756;21.140;2022-09-01T03:49:02;1.00;;;0.80;;
64459;SDS011;50828;53.756;21.140;2022-09-01T03:54:16;2.10;;;0.70;;
64459;SDS011;50828;53.756;21.140;2022-09-01T03:59:24;1.50;;;0.70;;
64459;SDS011;50828;53.756;21.140;2022-09-01T04:04:33;1.20;;;0.60;;
64459;SDS011;50828;53.756;21.140;2022-09-01T04:09:41;0.90;;;0.70;;
64459;SDS011;50828;53.756;21.140;2022-09-01T04:14:49;2.10;;;0.90;;
64459;SDS011;50828;53.756;21.140;2022-09-01T04:19:56;1.70;;;0.90;;
64459;SDS011;50828;53.756;21.140;2022-09-01T04:25:11;1.50;;;0.70;;
64459;SDS011;50828;53.756;21.140;2022-09-01T04:30:19;1.30;;;0.70;;
64459;SDS011;50828;53.756;21.140;2022-09-01T04:35:38;2.80;;;0.80;;
64459;SDS011;50828;53.756;21.140;2022-09-01T04:40:45;3.60;;;0.90;;
64459;SDS011;50828;53.756;21.140;2022-09-01T04:45:53;1.20;;;0.90;;
64459;SDS011;50828;53.756;21.140;2022-09-01T04:51:04;1.60;;;1.10;;
64459;SDS011;50828;53.756;21.140;2022-09-01T04:56:26;2.10;;;1.00;;
64459;SDS011;50828;53.756;21.140;2022-09-01T05:01:48;1.90;;;0.90;;
64459;SDS011;50828;53.756;21.140;2022-09-01T05:06:58;3.00;;;0.80;;
64459;SDS011;50828;53.756;21.140;2022-09-01T05:12:12;1.10;;;0.70;;
64459;SDS011;50828;53.756;21.140;2022-09-01T05:17:21;2.70;;;0.80;;
64459;SDS011;50828;53.756;21.140;2022-09-01T05:22:32;4.50;;;1.20;;
64459;SDS011;50828;53.756;21.140;2022-09-01T05:27:42;1.00;;;0.80;;
64459;SDS011;50828;53.756;21.140;2022-09-01T05:32:54;2.80;;;0.80;;
64459;SDS011;50828;53.756;21.140;2022-09-01T05:38:04;1.10;;;0.70;;
64459;SDS011;50828;53.756;21.140;2022-09-01T05:43:18;0.70;;;0.50;;
64459;SDS011;50828;53.756;21.140;2022-09-01T05:48:26;1.30;;;0.70;;
64459;SDS011;50828;53.756;21.140;2022-09-01T05:53:34;1.30;;;0.80;;
64459;SDS011;50828;53.756;21.140;2022-09-01T05:58:44;1.10;;;0.70;;
64459;SDS011;50828;53.756;21.140;2022-09-01T06:04:13;0.90;;;0.70;;
64459;SDS011;50828;53.756;21.140;2022-09-01T06:09:20;2.20;;;0.90;;
64459;SDS011;50828;53.756;21.140;2022-09-01T06:14:30;0.90;;;0.80;;
64459;SDS011;50828;53.756;21.140;2022-09-01T06:19:37;2.00;;;0.60;;
64459;SDS011;50828;53.756;21.140;2022-09-01T06:24:45;0.70;;;0.60;;
64459;SDS011;50828;53.756;21.140;2022-09-01T06:30:03;2.30;;;0.70;;
64459;SDS011;50828;53.756;21.140;2022-09-01T06:35:24;2.40;;;0.60;;
64459;SDS011;50828;53.756;21.140;2022-09-01T06:40:32;1.00;;;0.50;;
64459;SDS011;50828;53.756;21.140;2022-09-01T06:45:43;0.40;;;0.40;;
64459;SDS011;50828;53.756;21.140;2022-09-01T06:50:53;0.70;;;0.40;;
64459;SDS011;50828;53.756;21.140;2022-09-01T06:56:23;0.80;;;0.40;;
64459;SDS011;50828;53.756;21.140;2022-09-01T07:01:35;0.50;;;0.30;;
64459;SDS011;50828;53.756;21.140;2022-09-01T07:06:42;1.60;;;0.30;;
64459;SDS011;50828;53.756;21.140;2022-09-01T07:12:07;0.40;;;0.30;;
64459;SDS011;50828;53.756;21.140;2022-09-01T07:17:30;0.50;;;0.30;;
64459;SDS011;50828;53.756;21.140;2022-09-01T07:22:38;0.80;;;0.30;;
64459;SDS011;50828;53.756;21.140;2022-09-01T07:28:06;2.40;;;0.40;;
64459;SDS011;50828;53.756;21.140;2022-09-01T07:33:18;0.80;;;0.30;;
64459;SDS011;50828;53.756;21.140;2022-09-01T07:38:48;1.90;;;0.60;;
64459;SDS011;50828;53.756;21.140;2022-09-01T07:44:24;1.40;;;0.50;;
64459;SDS011;50828;53.756;21.140;2022-09-01T07:49:52;1.60;;;0.80;;
64459;SDS011;50828;53.756;21.140;2022-09-01T07:55:19;2.40;;;0.40;;
64459;SDS011;50828;53.756;21.140;2022-09-01T08:00:27;0.80;;;0.30;;
64459;SDS011;50828;53.756;21.140;2022-09-01T08:05:38;0.90;;;0.40;;
64459;SDS011;50828;53.756;21.140;2022-09-01T08:10:46;2.90;;;1.10;;
64459;SDS011;50828;53.756;21.140;2022-09-01T08:15:53;1.40;;;0.60;;
64459;SDS011;50828;53.756;21.140;2022-09-01T08:21:11;0.70;;;0.50;;
64459;SDS011;50828;53.756;21.140;2022-09-01T08:26:38;0.40;;;0.30;;
64459;SDS011;50828;53.756;21.140;2022-09-01T08:31:46;1.40;;;0.50;;
64459;SDS011;50828;53.756;21.140;2022-09-01T08:36:55;1.40;;;0.30;;
64459;SDS011;50828;53.756;21.140;2022-09-01T08:42:05;0.30;;;0.20;;
64459;SDS011;50828;53.756;21.140;2022-09-01T08:47:19;0.30;;;0.20;;
64459;SDS011;50828;53.756;21.140;2022-09-01T08:52:48;0.60;;;0.30;;
64459;SDS011;50828;53.756;21.140;2022-09-01T08:58:13;1.60;;;0.80;;
64459;SDS011;50828;53.756;21.140;2022-09-01T09:03:54;0.80;;;0.40;;
64459;SDS011;50828;53.756;21.140;2022-09-01T09:09:13;1.10;;;0.70;;
64459;SDS011;50828;53.756;21.140;2022-09-01T09:14:27;1.00;;;0.50;;
64459;SDS011;50828;53.756;21.140;2022-09-01T09:19:43;0.50;;;0.40;;
64459;SDS011;50828;53.756;21.140;2022-09-01T09:24:52;1.40;;;0.40;;
64459;SDS011;50828;53.756;21.140;2022-09-01T09:30:05;0.80;;;0.30;;
64459;SDS011;50828;53.756;21.140;2022-09-01T09:40:26;1.90;;;0.40;;
64459;SDS011;50828;53.756;21.140;2022-09-01T09:45:52;1.00;;;0.50;;
64459;SDS011;50828;53.756;21.140;2022-09-01T09:51:28;2.40;;;0.60;;
64459;SDS011;50828;53.756;21.140;2022-09-01T09:56:35;2.30;;;0.70;;
64459;SDS011;50828;53.756;21.140;2022-09-01T10:01:44;3.30;;;0.40;;
64459;SDS011;50828;53.756;21.140;2022-09-01T10:06:56;0.40;;;0.30;;
64459;SDS011;50828;53.756;21.140;2022-09-01T10:12:03;1.50;;;0.30;;
64459;SDS011;50828;53.756;21.140;2022-09-01T10:17:15;0.80;;;0.30;;
64459;SDS011;50828;53.756;21.140;2022-09-01T10:22:27;0.50;;;0.40;;
64459;SDS011;50828;53.756;21.140;2022-09-01T10:27:36;0.80;;;0.30;;
64459;SDS011;50828;53.756;21.140;2022-09-01T10:32:47;0.30;;;0.20;;
64459;SDS011;50828;53.756;21.140;2022-09-01T10:37:59;0.60;;;0.30;;
64459;SDS011;50828;53.756;21.140;2022-09-01T10:43:28;1.10;;;0.30;;
64459;SDS011;50828;53.756;21.140;2022-09-01T10:48:40;0.80;;;0.30;;
64459;SDS011;50828;53.756;21.140;2022-09-01T10:53:57;2.50;;;0.40;;
64459;SDS011;50828;53.756;21.140;2022-09-01T10:59:08;0.50;;;0.20;;
64459;SDS011;50828;53.756;21.140;2022-09-01T11:10:24;0.90;;;0.60;;
64459;SDS011;50828;53.756;21.140;2022-09-01T11:15:39;0.80;;;0.50;;
64459;SDS011;50828;53.756;21.140;2022-09-01T11:20:48;0.80;;;0.60;;
64459;SDS011;50828;53.756;21.140;2022-09-01T11:25:56;0.50;;;0.40;;
64459;SDS011;50828;53.756;21.140;2022-09-01T11:31:24;0.70;;;0.40;;
64459;SDS011;50828;53.756;21.140;2022-09-01T11:36:42;0.80;;;0.40;;
64459;SDS011;50828;53.756;21.140;2022-09-01T11:41:56;0.40;;;0.30;;
64459;SDS011;50828;53.756;21.140;2022-09-01T11:47:07;0.50;;;0.30;;
64459;SDS011;50828;53.756;21.140;2022-09-01T11:52:20;0.30;;;0.30;;
64459;SDS011;50828;53.756;21.140;2022-09-01T11:57:30;0.60;;;0.30;;
64459;SDS011;50828;53.756;21.140;2022-09-01T12:02:43;0.60;;;0.40;;
64459;SDS011;50828;53.756;21.140;2022-09-01T12:07:52;0.50;;;0.20;;
64459;SDS011;50828;53.756;21.140;2022-09-01T12:13:00;0.50;;;0.20;;
64459;SDS011;50828;53.756;21.140;2022-09-01T12:18:12;0.30;;;0.20;;
64459;SDS011;50828;53.756;21.140;2022-09-01T12:23:25;0.50;;;0.40;;
64459;SDS011;50828;53.756;21.140;2022-09-01T12:28:34;1.00;;;0.30;;
64459;SDS011;50828;53.756;21.140;2022-09-01T12:33:44;0.60;;;0.30;;
64459;SDS011;50828;53.756;21.140;2022-09-01T12:38:53;0.70;;;0.30;;
64459;SDS011;50828;53.756;21.140;2022-09-01T12:49:37;1.60;;;0.90;;
64459;SDS011;50828;53.756;21.140;2022-09-01T12:55:14;1.00;;;0.50;;
64459;SDS011;50828;53.756;21.140;2022-09-01T13:00:54;1.30;;;0.90;;
64459;SDS011;50828;53.756;21.140;2022-09-01T13:06:04;1.30;;;0.80;;
64459;SDS011;50828;53.756;21.140;2022-09-01T13:11:13;1.60;;;0.80;;
64459;SDS011;50828;53.756;21.140;2022-09-01T13:16:22;1.00;;;0.80;;
64459;SDS011;50828;53.756;21.140;2022-09-01T13:21:30;1.00;;;0.80;;
64459;SDS011;50828;53.756;21.140;2022-09-01T13:26:39;2.60;;;1.50;;
64459;SDS011;50828;53.756;21.140;2022-09-01T13:32:08;1.80;;;0.80;;
64459;SDS011;50828;53.756;21.140;2022-09-01T13:37:22;2.50;;;1.40;;
64459;SDS011;50828;53.756;21.140;2022-09-01T13:42:30;2.30;;;1.50;;
64459;SDS011;50828;53.756;21.140;2022-09-01T13:47:37;1.80;;;1.20;;
64459;SDS011;50828;53.756;21.140;2022-09-01T13:53:05;0.70;;;0.60;;
64459;SDS011;50828;53.756;21.140;2022-09-01T13:58:13;1.70;;;1.00;;
64459;SDS011;50828;53.756;21.140;2022-09-01T14:03:21;0.80;;;0.50;;
64459;SDS011;50828;53.756;21.140;2022-09-01T14:08:29;1.80;;;0.80;;
64459;SDS011;50828;53.756;21.140;2022-09-01T14:13:37;1.40;;;0.80;;
64459;SDS011;50828;53.756;21.140;2022-09-01T14:18:44;3.00;;;1.40;;
64459;SDS011;50828;53.756;21.140;2022-09-01T14:23:52;3.70;;;1.70;;
64459;SDS011;50828;53.756;21.140;2022-09-01T14:28:59;2.40;;;0.90;;
64459;SDS011;50828;53.756;21.140;2022-09-01T14:34:06;0.50;;;0.30;;
64459;SDS011;50828;53.756;21.140;2022-09-01T14:39:14;1.60;;;0.30;;
64459;SDS011;50828;53.756;21.140;2022-09-01T14:44:22;0.70;;;0.30;;
64459;SDS011;50828;53.756;21.140;2022-09-01T14:49:30;1.50;;;0.60;;
64459;SDS011;50828;53.756;21.140;2022-09-01T14:54:40;3.60;;;3.00;;
64459;SDS011;50828;53.756;21.140;2022-09-01T14:59:47;12.00;;;5.10;;
64459;SDS011;50828;53.756;21.140;2022-09-01T15:04:55;12.20;;;4.40;;
64459;SDS011;50828;53.756;21.140;2022-09-01T15:10:03;14.40;;;4.20;;
64459;SDS011;50828;53.756;21.140;2022-09-01T15:15:12;7.30;;;2.60;;
64459;SDS011;50828;53.756;21.140;2022-09-01T15:20:20;4.00;;;1.70;;
64459;SDS011;50828;53.756;21.140;2022-09-01T15:25:45;3.50;;;1.40;;
64459;SDS011;50828;53.756;21.140;2022-09-01T15:30:54;4.40;;;1.20;;
64459;SDS011;50828;53.756;21.140;2022-09-01T15:36:03;2.40;;;1.40;;
64459;SDS011;50828;53.756;21.140;2022-09-01T15:41:13;3.50;;;1.30;;
64459;SDS011;50828;53.756;21.140;2022-09-01T15:46:22;4.20;;;1.40;;
64459;SDS011;50828;53.756;21.140;2022-09-01T15:51:35;2.20;;;1.00;;
64459;SDS011;50828;53.756;21.140;2022-09-01T15:56:43;1.90;;;1.00;;
64459;SDS011;50828;53.756;21.140;2022-09-01T16:01:52;4.40;;;1.40;;
64459;SDS011;50828;53.756;21.140;2022-09-01T16:07:00;9.20;;;2.80;;
64459;SDS011;50828;53.756;21.140;2022-09-01T16:12:08;8.40;;;2.60;;
64459;SDS011;50828;53.756;21.140;2022-09-01T16:17:16;9.40;;;2.80;;
64459;SDS011;50828;53.756;21.140;2022-09-01T16:22:31;10.00;;;3.50;;
64459;SDS011;50828;53.756;21.140;2022-09-01T16:27:41;9.90;;;3.20;;
64459;SDS011;50828;53.756;21.140;2022-09-01T16:32:49;7.30;;;2.80;;
64459;SDS011;50828;53.756;21.140;2022-09-01T16:38:02;5.90;;;2.10;;
64459;SDS011;50828;53.756;21.140;2022-09-01T16:43:18;3.50;;;1.50;;
64459;SDS011;50828;53.756;21.140;2022-09-01T16:48:35;6.60;;;2.60;;
64459;SDS011;50828;53.756;21.140;2022-09-01T16:53:59;11.20;;;5.30;;
64459;SDS011;50828;53.756;21.140;2022-09-01T16:59:19;16.90;;;9.40;;
64459;SDS011;50828;53.756;21.140;2022-09-01T17:04:39;27.90;;;17.80;;
64459;SDS011;50828;53.756;21.140;2022-09-01T17:09:53;13.50;;;8.70;;
64459;SDS011;50828;53.756;21.140;2022-09-01T17:15:08;10.30;;;4.00;;
64459;SDS011;50828;53.756;21.140;2022-09-01T17:20:17;8.60;;;3.00;;
64459;SDS011;50828;53.756;21.140;2022-09-01T17:25:28;9.10;;;2.80;;
64459;SDS011;50828;53.756;21.140;2022-09-01T17:30:40;10.30;;;4.60;;
64459;SDS011;50828;53.756;21.140;2022-09-01T17:36:00;11.10;;;4.60;;
64459;SDS011;50828;53.756;21.140;2022-09-01T17:41:19;13.10;;;4.40;;
64459;SDS011;50828;53.756;21.140;2022-09-01T17:46:38;7.90;;;4.00;;
64459;SDS011;50828;53.756;21.140;2022-09-01T17:51:52;7.30;;;3.60;;
64459;SDS011;50828;53.756;21.140;2022-09-01T17:57:07;6.50;;;2.70;;
64459;SDS011;50828;53.756;21.140;2022-09-01T18:02:27;6.50;;;3.80;;
64459;SDS011;50828;53.756;21.140;2022-09-01T18:13:08;6.50;;;2.90;;
64459;SDS011;50828;53.756;21.140;2022-09-01T18:18:42;6.30;;;2.00;;
64459;SDS011;50828;53.756;21.140;2022-09-01T18:23:53;3.90;;;1.50;;
64459;SDS011;50828;53.756;21.140;2022-09-01T18:29:05;2.90;;;1.20;;
64459;SDS011;50828;53.756;21.140;2022-09-01T18:34:13;3.50;;;1.50;;
64459;SDS011;50828;53.756;21.140;2022-09-01T18:39:31;2.00;;;1.40;;
64459;SDS011;50828;53.756;21.140;2022-09-01T18:44:50;4.00;;;1.30;;
64459;SDS011;50828;53.756;21.140;2022-09-01T18:50:10;2.20;;;1.10;;
64459;SDS011;50828;53.756;21.140;2022-09-01T18:55:27;5.20;;;2.10;;
64459;SDS011;50828;53.756;21.140;2022-09-01T19:00:45;4.00;;;1.90;;
64459;SDS011;50828;53.756;21.140;2022-09-01T19:06:03;4.50;;;1.20;;
64459;SDS011;50828;53.756;21.140;2022-09-01T19:11:32;2.70;;;1.30;;
64459;SDS011;50828;53.756;21.140;2022-09-01T19:16:50;2.30;;;1.50;;
64459;SDS011;50828;53.756;21.140;2022-09-01T19:22:10;2.60;;;1.40;;
64459;SDS011;50828;53.756;21.140;2022-09-01T19:27:27;2.40;;;1.40;;
64459;SDS011;50828;53.756;21.140;2022-09-01T19:32:39;3.00;;;1.30;;
64459;SDS011;50828;53.756;21.140;2022-09-01T19:37:46;3.70;;;1.80;;
64459;SDS011;50828;53.756;21.140;2022-09-01T19:42:55;3.70;;;2.00;;
64459;SDS011;50828;53.756;21.140;2022-09-01T19:48:08;5.00;;;2.20;;
64459;SDS011;50828;53.756;21.140;2022-09-01T19:53:23;4.20;;;1.60;;
64459;SDS011;50828;53.756;21.140;2022-09-01T19:58:43;3.50;;;1.40;;
64459;SDS011;50828;53.756;21.140;2022-09-01T20:03:56;1.70;;;0.90;;
64459;SDS011;50828;53.756;21.140;2022-09-01T20:09:11;5.60;;;1.60;;
64459;SDS011;50828;53.756;21.140;2022-09-01T20:14:33;1.90;;;1.20;;
64459;SDS011;50828;53.756;21.140;2022-09-01T20:19:55;1.00;;;0.70;;
64459;SDS011;50828;53.756;21.140;2022-09-01T20:25:12;1.00;;;0.70;;
64459;SDS011;50828;53.756;21.140;2022-09-01T20:30:23;4.30;;;0.70;;
64459;SDS011;50828;53.756;21.140;2022-09-01T20:35:35;3.80;;;0.70;;
64459;SDS011;50828;53.756;21.140;2022-09-01T20:40:46;1.00;;;0.60;;
64459;SDS011;50828;53.756;21.140;2022-09-01T20:45:54;1.70;;;0.40;;
64459;SDS011;50828;53.756;21.140;2022-09-01T20:51:04;1.80;;;0.60;;
64459;SDS011;50828;53.756;21.140;2022-09-01T20:56:16;1.00;;;0.70;;
64459;SDS011;50828;53.756;21.140;2022-09-01T21:01:31;2.80;;;0.60;;
64459;SDS011;50828;53.756;21.140;2022-09-01T21:06:47;1.10;;;0.70;;
64459;SDS011;50828;53.756;21.140;2022-09-01T21:12:00;1.70;;;0.50;;
64459;SDS011;50828;53.756;21.140;2022-09-01T21:17:14;1.40;;;0.70;;
64459;SDS011;50828;53.756;21.140;2022-09-01T21:22:29;1.90;;;0.70;;
64459;SDS011;50828;53.756;21.140;2022-09-01T21:27:39;1.30;;;0.80;;
64459;SDS011;50828;53.756;21.140;2022-09-01T21:32:55;1.20;;;0.70;;
64459;SDS011;50828;53.756;21.140;2022-09-01T21:38:02;1.70;;;0.70;;
64459;SDS011;50828;53.756;21.140;2022-09-01T21:43:11;1.10;;;0.60;;
64459;SDS011;50828;53.756;21.140;2022-09-01T21:48:21;2.60;;;0.90;;
64459;SDS011;50828;53.756;21.140;2022-09-01T21:53:28;2.00;;;0.80;;
64459;SDS011;50828;53.756;21.140;2022-09-01T21:58:37;2.00;;;0.80;;
64459;SDS011;50828;53.756;21.140;2022-09-01T22:03:52;2.60;;;1.00;;
64459;SDS011;50828;53.756;21.140;2022-09-01T22:09:00;1.20;;;0.80;;
64459;SDS011;50828;53.756;21.140;2022-09-01T22:14:23;1.10;;;0.70;;
64459;SDS011;50828;53.756;21.140;2022-09-01T22:19:33;1.40;;;0.80;;
64459;SDS011;50828;53.756;21.140;2022-09-01T22:24:40;1.20;;;0.80;;
64459;SDS011;50828;53.756;21.140;2022-09-01T22:29:48;1.40;;;0.90;;
64459;SDS011;50828;53.756;21.140;2022-09-01T22:34:57;0.80;;;0.70;;
64459;SDS011;50828;53.756;21.140;2022-09-01T22:40:07;1.40;;;0.80;;
64459;SDS011;50828;53.756;21.140;2022-09-01T22:45:16;2.70;;;0.70;;
64459;SDS011;50828;53.756;21.140;2022-09-01T22:50:23;1.70;;;1.10;;
64459;SDS011;50828;53.756;21.140;2022-09-01T22:55:34;1.90;;;0.80;;
64459;SDS011;50828;53.756;21.140;2022-09-01T23:00:46;1.30;;;0.80;;
64459;SDS011;50828;53.756;21.140;2022-09-01T23:06:02;1.90;;;0.80;;
64459;SDS011;50828;53.756;21.140;2022-09-01T23:11:13;1.60;;;1.10;;
64459;SDS011;50828;53.756;21.140;2022-09-01T23:16:21;2.40;;;0.70;;
64459;SDS011;50828;53.756;21.140;2022-09-01T23:21:30;1.50;;;0.80;;
64459;SDS011;50828;53.756;21.140;2022-09-01T23:26:39;1.40;;;0.80;;
64459;SDS011;50828;53.756;21.140;2022-09-01T23:31:47;2.00;;;0.70;;
64459;SDS011;50828;53.756;21.140;2022-09-01T23:36:55;3.10;;;0.90;;
64459;SDS011;50828;53.756;21.140;2022-09-01T23:42:02;2.20;;;1.20;;
64459;SDS011;50828;53.756;21.140;2022-09-01T23:47:11;4.00;;;1.10;;
64459;SDS011;50828;53.756;21.140;2022-09-01T23:52:18;2.20;;;1.10;;
64459;SDS011;50828;53.756;21.140;2022-09-01T23:57:26;2.60;;;1.20;;
